Terminal Aerodrome Forecast
Issued by NWS

Home | Current Version | Previous Version | Text Only | Print | Product List | Glossary On
Versions: 1 2 3 4 5 6 7 8 9 10 11 12 13 14 15 16 17 18 19
322
FTUS42 KTAE 191730
TAFDHN
TAF
KDHN 191730Z 1918/2018 20007KT P6SM SCT015
     FM200300 18004KT 2SM TSRA BR OVC015CB
     FM200900 18005KT 5SM BR VCSH OVC007
     FM201600 21010KT P6SM BKN015=

USA.gov is the U.S. government's official web portal to all federal, state and local government web resources and services.